createdAt,value
2022-09-27T00:00:42.998Z,10.79
2022-09-27T00:03:11.865Z,10.77
2022-09-27T00:05:39.510Z,10.77
2022-09-27T00:08:06.911Z,10.77
2022-09-27T00:10:34.276Z,10.67
2022-09-27T00:13:01.484Z,10.70
2022-09-27T00:15:28.769Z,10.73
2022-09-27T00:17:56.103Z,10.79
2022-09-27T00:20:23.442Z,10.76
2022-09-27T00:22:50.640Z,10.76
2022-09-27T00:25:18.355Z,10.83
2022-09-27T00:27:45.591Z,10.92
2022-09-27T00:30:14.073Z,10.97
2022-09-27T00:32:41.338Z,11.02
2022-09-27T00:35:08.798Z,11.03
2022-09-27T00:37:36.229Z,10.99
2022-09-27T00:40:03.762Z,10.93
2022-09-27T00:42:31.570Z,10.98
2022-09-27T00:45:02.643Z,11.04
2022-09-27T00:47:39.702Z,11.07
2022-09-27T00:50:15.130Z,11.05
2022-09-27T00:52:49.424Z,11.05
2022-09-27T00:55:20.842Z,11.08
2022-09-27T00:57:49.302Z,11.06
2022-09-27T01:00:17.193Z,11.06
2022-09-27T01:02:49.742Z,11.15
2022-09-27T01:05:20.879Z,11.11
2022-09-27T01:07:48.215Z,11.13
2022-09-27T01:10:17.106Z,11.16
2022-09-27T01:13:08.621Z,11.12
2022-09-27T01:15:38.870Z,11.13
2022-09-27T01:18:18.458Z,11.14
2022-09-27T01:21:14.122Z,11.19
2022-09-27T01:24:00.379Z,11.18
2022-09-27T01:27:01.658Z,11.13
2022-09-27T01:29:53.802Z,11.06
2022-09-27T01:32:31.966Z,11.01
2022-09-27T01:35:30.721Z,10.96
2022-09-27T01:38:13.229Z,10.90
2022-09-27T01:40:52.833Z,10.79
2022-09-27T01:44:00.830Z,10.67
2022-09-27T01:46:42.073Z,10.62
2022-09-27T01:49:22.639Z,10.64
2022-09-27T01:51:57.424Z,10.56
2022-09-27T01:54:34.022Z,10.55
2022-09-27T01:57:35.304Z,10.57
2022-09-27T02:00:07.978Z,10.54
2022-09-27T02:03:07.225Z,10.48
2022-09-27T02:05:43.006Z,10.53
2022-09-27T02:08:58.683Z,10.42
2022-09-27T02:11:56.123Z,10.55
2022-09-27T02:14:33.850Z,10.48
2022-09-27T02:17:20.781Z,10.51
2022-09-27T02:20:01.201Z,10.42
2022-09-27T02:22:42.336Z,10.48
2022-09-27T02:25:21.105Z,10.65
2022-09-27T02:28:10.490Z,10.67
2022-09-27T02:30:42.117Z,10.69
2022-09-27T02:33:43.901Z,10.66
2022-09-27T02:36:11.619Z,10.70
2022-09-27T02:38:39.007Z,10.70
2022-09-27T02:41:18.823Z,10.67
2022-09-27T02:43:57.215Z,10.65
2022-09-27T02:46:57.286Z,10.65
2022-09-27T02:50:00.043Z,10.59
2022-09-27T02:53:11.426Z,10.61
2022-09-27T02:55:53.791Z,10.60
2022-09-27T02:59:02.968Z,10.62
2022-09-27T03:02:13.980Z,10.59
2022-09-27T03:05:28.113Z,10.53
2022-09-27T03:07:55.548Z,10.53
2022-09-27T03:10:28.893Z,10.55
2022-09-27T03:12:58.690Z,10.46
2022-09-27T03:15:26.022Z,10.50
2022-09-27T03:18:19.174Z,10.39
2022-09-27T03:21:04.829Z,10.29
2022-09-27T03:23:32.510Z,10.17
2022-09-27T03:25:59.771Z,10.08
2022-09-27T03:28:29.726Z,10.03
2022-09-27T03:30:57.318Z,9.93
2022-09-27T03:33:49.066Z,9.84
2022-09-27T03:36:16.253Z,9.81
2022-09-27T03:38:43.900Z,9.81
2022-09-27T03:41:15.579Z,9.76
2022-09-27T03:43:42.953Z,9.72
2022-09-27T03:46:10.500Z,9.70
2022-09-27T03:48:38.481Z,9.68
2022-09-27T03:51:05.897Z,9.60
2022-09-27T03:53:33.098Z,9.55
2022-09-27T03:56:00.881Z,9.58
2022-09-27T03:58:28.188Z,9.63
2022-09-27T04:00:55.448Z,9.62
2022-09-27T04:03:23.387Z,9.50
2022-09-27T04:06:20.225Z,9.49
2022-09-27T04:08:47.712Z,9.43
2022-09-27T04:11:15.394Z,9.45
2022-09-27T04:13:47.485Z,9.50
2022-09-27T04:16:16.842Z,9.40
2022-09-27T04:18:55.370Z,9.35
2022-09-27T04:21:41.172Z,9.40
2022-09-27T04:24:11.986Z,9.33
2022-09-27T04:26:43.383Z,9.34
2022-09-27T04:29:14.423Z,9.28
2022-09-27T04:31:48.590Z,9.26
2022-09-27T04:34:16.141Z,9.25
2022-09-27T04:36:43.591Z,9.28
2022-09-27T04:39:16.738Z,9.23
2022-09-27T04:41:45.496Z,9.25
2022-09-27T04:44:13.517Z,9.28
2022-09-27T04:46:47.327Z,9.34
2022-09-27T04:49:17.608Z,9.32
2022-09-27T04:51:45.262Z,9.30
2022-09-27T04:54:12.466Z,9.28
2022-09-27T04:56:48.906Z,9.31
2022-09-27T04:59:16.749Z,9.27
2022-09-27T05:01:45.316Z,9.34
2022-09-27T05:04:31.959Z,9.38
2022-09-27T05:07:00.206Z,9.36
2022-09-27T05:09:35.902Z,9.39
2022-09-27T05:12:03.552Z,9.37
2022-09-27T05:14:33.479Z,9.38
2022-09-27T05:17:12.741Z,9.48
2022-09-27T05:19:57.592Z,9.45
2022-09-27T05:22:33.234Z,9.46
2022-09-27T05:25:00.404Z,9.46
2022-09-27T05:27:28.139Z,9.49
2022-09-27T05:29:56.844Z,9.45
2022-09-27T05:32:33.144Z,9.48
2022-09-27T05:35:23.147Z,9.51
2022-09-27T05:37:55.296Z,9.49
2022-09-27T05:40:40.287Z,9.46
2022-09-27T05:43:08.628Z,9.51
2022-09-27T05:45:35.930Z,9.53
2022-09-27T05:48:05.862Z,9.56
2022-09-27T05:50:37.516Z,9.60
2022-09-27T05:53:05.291Z,9.63
2022-09-27T05:55:32.796Z,9.64
2022-09-27T05:58:01.907Z,9.60
2022-09-27T06:00:39.794Z,9.53
2022-09-27T06:03:26.920Z,9.65
2022-09-27T06:06:26.446Z,9.65
2022-09-27T06:08:57.602Z,9.77
2022-09-27T06:11:27.602Z,9.79
2022-09-27T06:13:54.992Z,9.82
2022-09-27T06:16:23.155Z,9.83
2022-09-27T06:18:50.444Z,9.91
2022-09-27T06:21:18.104Z,9.99
2022-09-27T06:23:54.300Z,10.07
2022-09-27T06:26:28.849Z,10.03
2022-09-27T06:29:15.124Z,10.08
2022-09-27T06:31:49.112Z,10.16
2022-09-27T06:34:33.405Z,10.24
2022-09-27T06:37:00.703Z,10.21
2022-09-27T06:39:29.309Z,10.09
2022-09-27T06:42:18.713Z,10.18
2022-09-27T06:44:58.380Z,10.21
2022-09-27T06:47:44.268Z,10.18
2022-09-27T06:50:40.417Z,10.20
2022-09-27T06:53:10.753Z,10.19
2022-09-27T06:55:39.089Z,10.19
2022-09-27T06:58:25.906Z,10.21
2022-09-27T07:01:12.039Z,10.19
2022-09-27T07:03:58.889Z,10.18
2022-09-27T07:06:42.827Z,10.23
2022-09-27T07:09:21.314Z,10.33
2022-09-27T07:11:48.574Z,10.31
2022-09-27T07:14:17.479Z,10.28
2022-09-27T07:16:45.687Z,10.29
2022-09-27T07:19:14.468Z,10.36
2022-09-27T07:21:42.369Z,10.27
2022-09-27T07:24:09.708Z,10.29
2022-09-27T07:26:36.944Z,10.44
2022-09-27T07:29:07.312Z,10.53
2022-09-27T07:31:34.752Z,10.53
2022-09-27T07:34:01.894Z,10.61
2022-09-27T07:36:30.164Z,10.66
2022-09-27T07:39:01.519Z,10.86
2022-09-27T07:41:32.048Z,10.87
2022-09-27T07:43:59.739Z,11.00
2022-09-27T07:46:27.915Z,11.08
2022-09-27T07:48:58.782Z,11.16
2022-09-27T07:51:49.164Z,11.15
2022-09-27T07:54:34.645Z,11.24
2022-09-27T07:57:17.152Z,11.23
2022-09-27T07:59:48.823Z,11.21
2022-09-27T08:02:19.286Z,11.25
2022-09-27T08:04:48.491Z,11.23
2022-09-27T08:07:16.095Z,11.25
2022-09-27T08:09:46.144Z,11.34
2022-09-27T08:12:13.793Z,11.24
2022-09-27T08:14:45.034Z,11.24
2022-09-27T08:17:17.513Z,11.28
2022-09-27T08:20:06.572Z,11.32
2022-09-27T08:22:56.829Z,11.25
2022-09-27T08:25:38.514Z,11.25
2022-09-27T08:28:17.795Z,11.31
2022-09-27T08:30:54.522Z,11.33
2022-09-27T08:33:22.226Z,11.39
2022-09-27T08:35:49.501Z,11.50
2022-09-27T08:38:16.897Z,11.46
2022-09-27T08:40:53.387Z,11.52
2022-09-27T08:43:40.074Z,11.64
2022-09-27T08:46:42.804Z,11.67
2022-09-27T08:49:21.244Z,11.68
2022-09-27T08:51:52.574Z,11.82
2022-09-27T08:54:25.034Z,11.90
2022-09-27T08:56:54.968Z,11.88
2022-09-27T08:59:29.559Z,11.87
2022-09-27T09:01:57.119Z,11.99
2022-09-27T09:04:40.262Z,12.03
2022-09-27T09:07:26.371Z,12.07
2022-09-27T09:10:13.144Z,12.03
2022-09-27T09:13:01.921Z,11.84
2022-09-27T09:16:15.985Z,11.13
2022-09-27T09:19:07.908Z,11.01
2022-09-27T09:22:06.910Z,11.12
2022-09-27T09:24:37.178Z,11.76
2022-09-27T09:27:13.404Z,12.31
2022-09-27T09:30:26.292Z,12.62
2022-09-27T09:33:16.664Z,12.75
2022-09-27T09:36:06.439Z,12.29
2022-09-27T09:38:40.420Z,12.27
2022-09-27T09:41:15.748Z,11.87
2022-09-27T09:43:50.843Z,11.63
2022-09-27T09:46:44.763Z,11.95
2022-09-27T09:49:34.078Z,12.08
2022-09-27T09:52:09.069Z,12.26
2022-09-27T09:55:06.551Z,12.29
2022-09-27T09:57:46.648Z,12.28
2022-09-27T10:00:21.727Z,12.44
2022-09-27T10:02:55.634Z,12.46
2022-09-27T10:05:24.861Z,12.68
2022-09-27T10:08:13.046Z,13.24
2022-09-27T10:10:40.426Z,13.87
2022-09-27T10:13:26.180Z,13.80
2022-09-27T10:16:10.301Z,13.40
2022-09-27T10:18:39.877Z,12.98
2022-09-27T10:21:13.816Z,12.79
2022-09-27T10:24:06.190Z,12.48
2022-09-27T10:27:01.393Z,12.26
2022-09-27T10:29:37.619Z,12.21
2022-09-27T10:32:22.896Z,11.99
2022-09-27T10:34:51.521Z,11.49
2022-09-27T10:37:23.207Z,10.72
2022-09-27T10:40:26.182Z,10.33
2022-09-27T10:42:54.405Z,10.09
2022-09-27T10:45:34.468Z,9.99
2022-09-27T10:48:23.446Z,9.88
2022-09-27T10:51:01.761Z,9.87
2022-09-27T10:53:46.854Z,9.77
2022-09-27T10:56:28.624Z,9.81
2022-09-27T10:58:58.138Z,9.89
2022-09-27T11:01:38.198Z,10.13
2022-09-27T11:04:32.436Z,10.42
2022-09-27T11:07:15.376Z,10.45
2022-09-27T11:10:03.069Z,10.54
2022-09-27T11:12:41.118Z,10.72
2022-09-27T11:15:19.254Z,10.86
2022-09-27T11:18:03.263Z,10.75
2022-09-27T11:20:49.775Z,10.74
2022-09-27T11:23:21.264Z,10.52
2022-09-27T11:26:14.730Z,10.37
2022-09-27T11:29:13.139Z,10.29
2022-09-27T11:32:42.527Z,10.29
2022-09-27T11:35:35.056Z,10.27
2022-09-27T11:38:40.777Z,10.37
2022-09-27T11:41:19.336Z,10.29
2022-09-27T11:44:02.911Z,10.22
2022-09-27T11:46:41.541Z,10.19
2022-09-27T11:49:36.316Z,10.19
2022-09-27T11:52:27.737Z,10.19
2022-09-27T11:55:24.620Z,10.08
2022-09-27T11:58:30.454Z,10.01
2022-09-27T12:01:43.090Z,10.10
2022-09-27T12:04:22.347Z,10.34
2022-09-27T12:07:12.274Z,10.63
2022-09-27T12:09:48.102Z,10.85
2022-09-27T12:12:23.836Z,10.74
2022-09-27T12:15:06.686Z,10.85
2022-09-27T12:17:48.470Z,10.94
2022-09-27T12:20:31.137Z,10.97
2022-09-27T12:23:20.318Z,10.85
2022-09-27T12:26:06.440Z,10.95
2022-09-27T12:28:47.217Z,10.97
2022-09-27T12:31:30.509Z,10.87
2022-09-27T12:34:33.074Z,10.83
2022-09-27T12:37:18.744Z,10.84
2022-09-27T12:40:31.342Z,11.00
2022-09-27T12:43:04.956Z,11.40
2022-09-27T12:46:19.702Z,11.65
2022-09-27T12:49:00.791Z,11.94
2022-09-27T12:51:37.070Z,12.04
2022-09-27T12:54:23.070Z,12.41
2022-09-27T12:57:04.335Z,12.15
2022-09-27T12:59:58.642Z,12.07
2022-09-27T13:03:11.236Z,12.36
2022-09-27T13:06:11.988Z,12.52
2022-09-27T13:08:48.765Z,12.36
2022-09-27T13:11:45.647Z,12.11
2022-09-27T13:14:24.034Z,11.84
2022-09-27T13:16:51.859Z,11.77
2022-09-27T13:19:39.947Z,11.72
2022-09-27T13:22:37.512Z,11.86
2022-09-27T13:25:55.577Z,11.85
2022-09-27T13:28:48.560Z,11.43
2022-09-27T13:31:54.556Z,11.42
2022-09-27T13:34:47.966Z,11.11
2022-09-27T13:37:40.094Z,10.84
2022-09-27T13:40:24.279Z,11.08
2022-09-27T13:43:21.912Z,11.44
2022-09-27T13:46:05.891Z,11.18
2022-09-27T13:48:47.892Z,11.41
2022-09-27T13:51:31.579Z,11.83
2022-09-27T13:54:26.232Z,12.22
2022-09-27T13:56:56.336Z,12.15
2022-09-27T13:59:43.502Z,11.63
2022-09-27T14:02:59.352Z,11.67
2022-09-27T14:05:34.215Z,11.62
2022-09-27T14:08:03.435Z,11.69
2022-09-27T14:10:32.863Z,11.75
2022-09-27T14:13:06.037Z,11.57
2022-09-27T14:15:40.197Z,11.30
2022-09-27T14:18:12.076Z,11.25
2022-09-27T14:20:43.312Z,11.24
2022-09-27T14:23:25.582Z,11.27
2022-09-27T14:25:55.175Z,11.41
2022-09-27T14:28:26.872Z,11.36
2022-09-27T14:31:23.202Z,10.97
2022-09-27T14:34:14.021Z,10.60
2022-09-27T14:37:08.092Z,10.43
2022-09-27T14:40:06.843Z,10.46
2022-09-27T14:42:36.942Z,10.51
2022-09-27T14:45:20.928Z,10.63
2022-09-27T14:47:49.935Z,10.71
2022-09-27T14:50:24.845Z,10.47
2022-09-27T14:52:56.229Z,10.47
2022-09-27T14:55:26.309Z,10.54
2022-09-27T14:58:04.744Z,10.53
2022-09-27T15:00:35.404Z,10.53
2022-09-27T15:03:05.934Z,10.42
2022-09-27T15:05:35.070Z,10.42
2022-09-27T15:08:05.952Z,10.38
2022-09-27T15:10:38.392Z,10.62
2022-09-27T15:13:06.961Z,10.54
2022-09-27T15:15:38.224Z,10.47
2022-09-27T15:18:45.278Z,10.42
2022-09-27T15:21:15.480Z,10.43
2022-09-27T15:23:45.041Z,10.35
2022-09-27T15:26:35.897Z,10.37
2022-09-27T15:29:03.609Z,10.38
2022-09-27T15:31:36.326Z,10.13
2022-09-27T15:34:07.278Z,10.07
2022-09-27T15:36:51.626Z,9.94
2022-09-27T15:39:32.488Z,9.86
2022-09-27T15:42:15.774Z,9.78
2022-09-27T15:44:43.059Z,9.76
2022-09-27T15:47:32.157Z,9.67
2022-09-27T15:50:19.812Z,9.66
2022-09-27T15:52:50.155Z,9.74
2022-09-27T15:55:25.644Z,9.72
2022-09-27T15:58:07.738Z,9.75
2022-09-27T16:00:38.450Z,9.79
2022-09-27T16:03:05.678Z,9.68
2022-09-27T16:05:33.314Z,9.63
2022-09-27T16:08:00.728Z,9.66
2022-09-27T16:10:38.410Z,9.71
2022-09-27T16:13:05.789Z,9.71
2022-09-27T16:15:33.298Z,9.72
2022-09-27T16:18:00.817Z,9.70
2022-09-27T16:20:28.679Z,9.70
2022-09-27T16:22:56.855Z,9.66
2022-09-27T16:25:24.818Z,9.83
2022-09-27T16:27:54.849Z,9.71
2022-09-27T16:30:21.940Z,9.77
2022-09-27T16:32:49.763Z,9.65
2022-09-27T16:35:18.699Z,9.64
2022-09-27T16:37:46.650Z,9.61
2022-09-27T16:40:15.380Z,9.54
2022-09-27T16:42:43.307Z,9.35
2022-09-27T16:45:14.553Z,9.23
2022-09-27T16:47:44.445Z,8.97
2022-09-27T16:50:34.490Z,8.78
2022-09-27T16:53:01.927Z,8.69
2022-09-27T16:55:29.461Z,8.48
2022-09-27T16:57:59.845Z,8.46
2022-09-27T17:00:27.734Z,8.43
2022-09-27T17:02:55.227Z,8.48
2022-09-27T17:05:23.225Z,8.48
2022-09-27T17:07:52.161Z,8.57
2022-09-27T17:10:23.534Z,8.62
2022-09-27T17:12:51.144Z,8.61
2022-09-27T17:15:19.061Z,8.74
2022-09-27T17:17:50.783Z,8.65
2022-09-27T17:20:18.139Z,8.75
2022-09-27T17:22:45.431Z,8.62
2022-09-27T17:25:12.782Z,8.55
2022-09-27T17:27:39.940Z,8.45
2022-09-27T17:30:07.895Z,8.53
2022-09-27T17:32:35.064Z,8.47
2022-09-27T17:35:02.757Z,8.45
2022-09-27T17:37:30.058Z,8.43
2022-09-27T17:39:58.288Z,8.61
2022-09-27T17:42:25.790Z,8.66
2022-09-27T17:44:53.157Z,8.48
2022-09-27T17:47:39.187Z,8.56
2022-09-27T17:50:25.364Z,8.46
2022-09-27T17:52:53.635Z,8.63
2022-09-27T17:55:21.797Z,8.70
2022-09-27T17:57:50.462Z,8.76
2022-09-27T18:00:18.741Z,8.67
2022-09-27T18:02:46.302Z,8.62
2022-09-27T18:05:13.827Z,8.63
2022-09-27T18:07:41.075Z,8.62
2022-09-27T18:10:08.877Z,8.56
2022-09-27T18:12:36.199Z,8.51
2022-09-27T18:15:04.161Z,8.57
2022-09-27T18:17:33.941Z,8.51
2022-09-27T18:20:12.127Z,8.66
2022-09-27T18:22:43.022Z,8.72
2022-09-27T18:25:12.062Z,8.81
2022-09-27T18:27:41.255Z,8.79
2022-09-27T18:30:09.636Z,8.74
2022-09-27T18:32:36.947Z,8.74
2022-09-27T18:35:52.437Z,8.72
2022-09-27T18:39:28.469Z,8.80
2022-09-27T18:42:11.779Z,8.60
2022-09-27T18:44:38.959Z,8.50
2022-09-27T18:47:06.308Z,8.63
2022-09-27T18:49:34.507Z,8.71
2022-09-27T18:52:03.658Z,8.54
2022-09-27T18:54:31.816Z,8.42
2022-09-27T18:56:59.228Z,8.32
2022-09-27T18:59:26.552Z,8.29
2022-09-27T19:01:53.842Z,8.29
2022-09-27T19:04:24.991Z,8.18
2022-09-27T19:06:54.718Z,8.07
2022-09-27T19:09:23.515Z,8.00
2022-09-27T19:11:51.944Z,7.93
2022-09-27T19:14:24.512Z,7.95
2022-09-27T19:16:54.739Z,8.01
2022-09-27T19:19:22.602Z,7.97
2022-09-27T19:21:54.134Z,7.95
2022-09-27T19:24:22.322Z,7.95
2022-09-27T19:26:53.795Z,8.01
2022-09-27T19:29:21.785Z,7.95
2022-09-27T19:31:48.902Z,7.88
2022-09-27T19:34:18.184Z,7.93
2022-09-27T19:36:45.530Z,7.88
2022-09-27T19:39:13.255Z,7.86
2022-09-27T19:41:40.875Z,7.89
2022-09-27T19:44:08.213Z,7.89
2022-09-27T19:46:35.806Z,7.90
2022-09-27T19:49:03.300Z,7.90
2022-09-27T19:51:31.627Z,7.80
2022-09-27T19:53:59.010Z,7.85
2022-09-27T19:56:26.262Z,7.84
2022-09-27T19:58:54.934Z,7.57
2022-09-27T20:01:25.418Z,7.40
2022-09-27T20:03:56.260Z,7.33
2022-09-27T20:06:24.737Z,7.27
2022-09-27T20:08:52.748Z,7.31
2022-09-27T20:11:34.901Z,7.44
2022-09-27T20:14:02.076Z,7.34
2022-09-27T20:16:29.406Z,7.36
2022-09-27T20:18:59.540Z,7.31
2022-09-27T20:21:33.170Z,7.35
2022-09-27T20:24:02.298Z,7.40
2022-09-27T20:26:31.259Z,7.42
2022-09-27T20:29:00.694Z,7.47
2022-09-27T20:31:33.872Z,7.52
2022-09-27T20:34:01.786Z,7.61
2022-09-27T20:36:38.663Z,7.74
2022-09-27T20:39:11.183Z,7.62
2022-09-27T20:41:41.088Z,7.63
2022-09-27T20:44:11.276Z,7.77
2022-09-27T20:46:40.545Z,7.78
2022-09-27T20:49:14.650Z,7.83
2022-09-27T20:51:43.907Z,7.77
2022-09-27T20:54:14.370Z,7.80
2022-09-27T20:56:44.255Z,7.80
2022-09-27T20:59:20.413Z,7.72
2022-09-27T21:01:49.815Z,7.76
2022-09-27T21:04:18.973Z,7.84
2022-09-27T21:06:46.563Z,7.72
2022-09-27T21:09:18.742Z,7.66
2022-09-27T21:11:51.734Z,7.64
2022-09-27T21:14:19.864Z,7.81
2022-09-27T21:16:47.400Z,7.74
2022-09-27T21:19:14.655Z,7.81
2022-09-27T21:21:42.240Z,7.69
2022-09-27T21:24:09.382Z,7.79
2022-09-27T21:26:37.015Z,7.61
2022-09-27T21:29:10.631Z,7.52
2022-09-27T21:31:38.636Z,7.41
2022-09-27T21:34:06.191Z,7.36
2022-09-27T21:36:36.622Z,7.34
2022-09-27T21:39:05.855Z,7.43
2022-09-27T21:41:32.903Z,7.37
2022-09-27T21:44:04.081Z,7.19
2022-09-27T21:46:31.757Z,7.35
2022-09-27T21:49:01.892Z,7.21
2022-09-27T21:51:36.370Z,7.21
2022-09-27T21:54:06.268Z,7.18
2022-09-27T21:56:37.399Z,7.26
2022-09-27T21:59:06.134Z,7.28
2022-09-27T22:01:34.750Z,7.29
2022-09-27T22:04:04.752Z,7.33
2022-09-27T22:06:34.510Z,7.36
2022-09-27T22:09:03.947Z,7.32
2022-09-27T22:11:33.839Z,7.32
2022-09-27T22:14:01.078Z,7.28
2022-09-27T22:16:30.351Z,7.32
2022-09-27T22:18:58.621Z,7.37
2022-09-27T22:21:32.283Z,7.46
2022-09-27T22:24:06.719Z,7.44
2022-09-27T22:26:37.533Z,7.43
2022-09-27T22:29:05.441Z,7.41
2022-09-27T22:31:33.041Z,7.43
2022-09-27T22:34:02.394Z,7.60
2022-09-27T22:36:30.496Z,7.63
2022-09-27T22:38:58.070Z,7.54
2022-09-27T22:41:25.798Z,7.63
2022-09-27T22:43:53.670Z,7.58
2022-09-27T22:46:21.192Z,7.68
2022-09-27T22:48:49.697Z,7.74
2022-09-27T22:51:17.727Z,7.64
2022-09-27T22:53:44.783Z,7.70
2022-09-27T22:56:19.798Z,7.64
2022-09-27T22:58:48.373Z,7.68
2022-09-27T23:01:24.187Z,7.60
2022-09-27T23:03:53.554Z,7.64
2022-09-27T23:06:24.285Z,7.57
2022-09-27T23:08:53.630Z,7.49
2022-09-27T23:11:22.482Z,7.64
2022-09-27T23:13:51.089Z,7.63
2022-09-27T23:16:21.296Z,7.76
2022-09-27T23:18:51.589Z,7.66
2022-09-27T23:21:18.879Z,7.51
2022-09-27T23:23:46.516Z,7.56
2022-09-27T23:26:16.001Z,7.53
2022-09-27T23:28:43.725Z,7.57
2022-09-27T23:31:13.816Z,7.65
2022-09-27T23:33:43.758Z,7.74
2022-09-27T23:36:15.114Z,7.64
2022-09-27T23:38:43.479Z,7.58
2022-09-27T23:41:10.765Z,7.68
2022-09-27T23:43:38.977Z,7.51
2022-09-27T23:46:08.063Z,7.74
2022-09-27T23:48:36.209Z,7.64
2022-09-27T23:51:04.859Z,7.59
2022-09-27T23:53:32.050Z,7.67
2022-09-27T23:56:03.054Z,7.72
2022-09-27T23:58:38.436Z,7.60
